메인 페이지
METAR-TAF:

METAR-TAF

공항 :

요코타 비행장

Yokota, 일본

위도: 35-45N, 경도: 139-21E, 고도: 139m

현재 날씨관측

예보는 48분 전, 07:56시(UTC)에 발표되었습니다.
남남서9kt
온도 27°C
습도 62%
기압 1006 hPa
시정: 16.1km
맑음

METAR: RJTY 240756Z AUTO 21009KT 10SM CLR 27/19 A2970 RMK AO2 SLP056 T02680189 FZRANO $

시각: 17:44 (08:44 UTC)

예보

예보는 3 시간 44분 전, 05:00시(UTC)에 발표되었습니다.
예보 대상 시간: 24일 05시부터 25일 11시까지 (UTC)
북동6kt
시정 10km 이상
고도 11000ft 상공 구름 조금
고도 18000ft 상공 구름 보통
전환 중
25일 03시부터 25일 04시까지 (UTC)
동남동9kt
시정 10km 이상
고도 8000ft 상공 구름 보통

TAF: RJTY 240500Z 2405/2511 04006KT 9999 FEW110 SCT180 QNH2954INS BECMG 2503/2504 11009KT 9999 SCT080 QNH2951INS TX30/2505Z TN19/2419Z

4,000개 이상의 공항 관측 자료 및 예보 (METAR 및 TAF 보고).

지도상에서 검색 가능한 기상관측소가 노란 점과 빨간 점으로 표시되어 있습니다.

기상관측소 명을 보려면 표시 위로 마우스를 이동하세요.

날씨 관측과 예보를 보려면 클릭하세요.

지도 변경 : 확대하려면 엑스 표시가 있는 녹색 버튼, 축소하려면 빼기 표시가 있는 녹색 버튼, 다음 페이지의 지도를 보려면 녹색 화살표를 클릭하세요.


METAR-TAF: